Time;durP1;ratioP1;P1;durP2;ratioP2;P2;SDS_P1;SDS_P2;PMS_P1;PMS_P2;Temp;Humidity;BMP_temperature;BMP_pressure;BME280_temperature;BME280_humidity;BME280_pressure;Samples;Min_cycle;Max_cycle;Signal;HPM_P1;HPM_P2
2020/12/14 00:02:04;;;;;;;40.55;15.77;;;2.90;99.90;;;;;;5098698;28;20186;-58
2020/12/14 00:04:29;;;;;;;43.50;18.02;;;2.90;99.90;;;;;;5099734;28;20174;-58
2020/12/14 00:06:55;;;;;;;39.35;17.02;;;2.90;99.90;;;;;;5099906;28;20187;-57
2020/12/14 00:09:23;;;;;;;37.72;16.90;;;2.90;99.90;;;;;;5099389;28;20174;-58
2020/12/14 00:11:49;;;;;;;42.15;17.92;;;3.00;99.90;;;;;;5099860;28;20171;-58
2020/12/14 00:14:14;;;;;;;39.47;16.33;;;3.00;99.90;;;;;;5099402;28;20167;-58
2020/12/14 00:16:41;;;;;;;45.28;18.25;;;3.00;99.90;;;;;;5099972;28;20255;-58
2020/12/14 00:19:06;;;;;;;37.25;16.90;;;3.00;99.90;;;;;;5103495;28;20626;-58
2020/12/14 00:21:32;;;;;;;43.00;18.60;;;3.00;99.90;;;;;;5102811;28;20183;-58
2020/12/14 00:23:57;;;;;;;44.10;18.73;;;3.00;99.90;;;;;;5100222;28;20224;-57
2020/12/14 00:26:23;;;;;;;44.38;18.48;;;3.00;99.90;;;;;;5097854;28;20196;-57
2020/12/14 00:28:48;;;;;;;48.60;18.58;;;3.00;99.90;;;;;;5097815;28;20195;-58
2020/12/14 00:31:16;;;;;;;46.70;18.85;;;3.10;99.90;;;;;;5097831;28;20171;-58
2020/12/14 00:33:41;;;;;;;49.03;19.00;;;3.10;99.90;;;;;;5097994;28;20197;-57
2020/12/14 00:36:08;;;;;;;43.25;18.25;;;3.10;99.90;;;;;;5098143;28;20483;-57
2020/12/14 00:38:34;;;;;;;46.72;18.95;;;3.10;99.90;;;;;;5098360;28;20203;-57
2020/12/14 00:40:59;;;;;;;50.10;20.38;;;3.10;99.90;;;;;;5098034;28;20168;-59
2020/12/14 00:43:25;;;;;;;50.42;17.88;;;3.20;99.90;;;;;;5097506;28;20508;-59
2020/12/14 00:45:50;;;;;;;49.65;19.63;;;3.20;99.90;;;;;;5097414;28;20268;-59
2020/12/14 00:48:16;;;;;;;47.55;19.90;;;3.20;99.90;;;;;;5097549;28;20164;-59
2020/12/14 00:50:41;;;;;;;48.58;19.35;;;3.20;99.90;;;;;;5097812;28;20168;-58
2020/12/14 00:53:07;;;;;;;46.95;18.23;;;3.20;99.90;;;;;;5097648;28;20192;-58
2020/12/14 00:55:33;;;;;;;53.55;19.60;;;3.20;99.90;;;;;;5097738;28;20168;-58
2020/12/14 00:57:58;;;;;;;49.10;19.98;;;3.20;99.90;;;;;;5096349;28;20171;-59
2020/12/14 01:00:24;;;;;;;50.33;19.48;;;3.20;99.90;;;;;;5096415;28;20164;-59
2020/12/14 01:02:49;;;;;;;55.03;20.42;;;3.20;99.90;;;;;;5097296;28;20317;-59
2020/12/14 01:05:15;;;;;;;53.88;20.08;;;3.20;99.90;;;;;;5097651;28;20191;-59
2020/12/14 01:07:40;;;;;;;56.97;21.15;;;3.20;99.90;;;;;;5103655;28;20202;-59
2020/12/14 01:10:06;;;;;;;56.70;21.75;;;3.30;99.90;;;;;;5098327;28;20160;-59
2020/12/14 01:12:31;;;;;;;53.55;20.33;;;3.30;99.90;;;;;;5097407;28;20159;-59
2020/12/14 01:14:57;;;;;;;59.53;22.00;;;3.30;99.90;;;;;;5097076;28;20470;-59
2020/12/14 01:17:22;;;;;;;60.45;21.30;;;3.30;99.90;;;;;;5097603;28;20174;-59
2020/12/14 01:19:48;;;;;;;57.05;20.90;;;3.30;99.90;;;;;;5096858;28;20174;-59
2020/12/14 01:22:13;;;;;;;57.45;21.70;;;3.30;99.90;;;;;;5097321;28;20175;-59
2020/12/14 01:24:39;;;;;;;62.50;21.48;;;3.30;99.90;;;;;;5096870;28;20599;-59
2020/12/14 01:27:04;;;;;;;56.38;21.65;;;3.30;99.90;;;;;;5097011;28;20203;-58
2020/12/14 01:29:30;;;;;;;53.67;21.15;;;3.30;99.90;;;;;;5096745;28;20178;-58
2020/12/14 01:31:55;;;;;;;63.30;22.00;;;3.40;99.90;;;;;;5097021;28;20507;-58
2020/12/14 01:34:21;;;;;;;53.90;21.98;;;3.40;99.90;;;;;;5096639;28;20167;-58
2020/12/14 01:36:48;;;;;;;59.90;22.08;;;3.40;99.90;;;;;;5096651;28;20174;-58
2020/12/14 01:39:17;;;;;;;52.28;20.55;;;3.40;99.90;;;;;;5096551;28;20175;-58
2020/12/14 01:41:42;;;;;;;63.80;22.52;;;3.40;99.90;;;;;;5096522;28;20191;-58
2020/12/14 01:44:08;;;;;;;58.13;22.27;;;3.40;99.90;;;;;;5096515;28;20260;-58
2020/12/14 01:46:35;;;;;;;60.78;21.42;;;3.50;99.90;;;;;;5096289;28;20227;-58
2020/12/14 01:49:00;;;;;;;65.82;22.50;;;3.50;99.90;;;;;;5095678;28;20167;-58
2020/12/14 01:51:30;;;;;;;55.50;21.80;;;3.50;99.90;;;;;;5095778;28;20174;-58
2020/12/14 01:53:58;;;;;;;65.05;22.75;;;3.50;99.90;;;;;;5096521;28;20258;-59
2020/12/14 01:56:25;;;;;;;57.58;21.85;;;3.50;99.90;;;;;;5096549;28;20202;-58
2020/12/14 01:58:51;;;;;;;58.63;21.65;;;3.50;99.90;;;;;;5096374;28;20473;-58
2020/12/14 02:01:16;;;;;;;57.00;22.00;;;3.50;99.90;;;;;;5096159;28;20175;-58
2020/12/14 02:03:42;;;;;;;59.10;22.58;;;3.50;99.90;;;;;;5096007;28;20167;-58
2020/12/14 02:06:08;;;;;;;62.78;22.48;;;3.50;99.90;;;;;;5096274;28;20579;-58
2020/12/14 02:08:34;;;;;;;64.03;22.90;;;3.50;99.90;;;;;;5096159;28;20288;-59
2020/12/14 02:10:59;;;;;;;59.83;21.77;;;3.50;99.90;;;;;;5095555;28;20167;-58
2020/12/14 02:13:26;;;;;;;58.30;23.05;;;3.50;99.90;;;;;;5094905;28;20155;-58
2020/12/14 02:15:52;;;;;;;60.72;22.45;;;3.60;99.90;;;;;;5095801;28;20612;-59
2020/12/14 02:18:17;;;;;;;63.67;23.08;;;3.60;99.90;;;;;;5096145;28;20171;-58
2020/12/14 02:20:43;;;;;;;62.13;21.77;;;3.60;99.90;;;;;;5096003;28;20225;-59
2020/12/14 02:23:08;;;;;;;52.63;21.48;;;3.60;99.90;;;;;;5094813;28;20243;-59
2020/12/14 02:25:34;;;;;;;63.40;22.98;;;3.60;99.90;;;;;;5095474;28;20187;-58
2020/12/14 02:27:59;;;;;;;60.88;22.30;;;3.60;99.90;;;;;;5095576;28;20170;-59
2020/12/14 02:30:25;;;;;;;63.75;22.75;;;3.60;99.90;;;;;;5095422;28;20170;-59
2020/12/14 02:32:50;;;;;;;62.33;22.48;;;3.70;99.90;;;;;;5096064;28;20713;-57
2020/12/14 02:35:16;;;;;;;56.53;21.85;;;3.70;99.90;;;;;;5095429;28;20167;-59
2020/12/14 02:37:41;;;;;;;61.22;22.98;;;3.70;99.90;;;;;;5095691;28;20224;-59
2020/12/14 02:40:07;;;;;;;60.47;22.27;;;3.70;99.90;;;;;;5095430;28;20228;-58
2020/12/14 02:42:33;;;;;;;63.33;23.45;;;3.70;99.90;;;;;;5096460;28;20251;-59
2020/12/14 02:44:58;;;;;;;62.20;23.52;;;3.70;99.90;;;;;;5094991;28;20170;-59
2020/12/14 02:47:24;;;;;;;63.28;22.48;;;3.70;99.90;;;;;;5095551;28;20156;-58
2020/12/14 02:49:49;;;;;;;62.20;20.92;;;3.70;99.90;;;;;;5095432;28;20209;-59
2020/12/14 02:52:15;;;;;;;59.63;21.48;;;3.70;99.90;;;;;;5096007;28;20238;-59
2020/12/14 02:54:41;;;;;;;61.25;22.52;;;3.70;99.90;;;;;;5095846;28;20198;-59
2020/12/14 02:57:08;;;;;;;62.78;22.42;;;3.70;99.90;;;;;;5095250;28;20159;-58
2020/12/14 02:59:33;;;;;;;61.22;22.73;;;3.70;99.90;;;;;;5095132;28;20177;-58
2020/12/14 03:01:59;;;;;;;60.72;22.27;;;3.70;99.90;;;;;;5095049;28;20238;-59
2020/12/14 03:04:24;;;;;;;57.88;21.58;;;3.70;99.90;;;;;;5094977;28;20182;-59
2020/12/14 03:06:50;;;;;;;56.53;21.38;;;3.70;99.90;;;;;;5094933;28;20237;-59
2020/12/14 03:09:18;;;;;;;62.17;21.35;;;3.70;99.90;;;;;;5095248;28;20163;-58
2020/12/14 03:11:43;;;;;;;63.60;22.15;;;3.70;99.90;;;;;;5095052;28;20224;-58
2020/12/14 03:14:09;;;;;;;63.97;23.17;;;3.70;99.90;;;;;;5094849;28;20167;-58
2020/12/14 03:16:41;;;;;;;60.63;22.25;;;3.70;99.90;;;;;;5095251;28;20539;-57
2020/12/14 03:19:07;;;;;;;65.63;23.58;;;3.70;99.90;;;;;;5095116;28;20164;-58
2020/12/14 03:21:33;;;;;;;56.75;21.80;;;3.80;99.90;;;;;;5094462;28;20284;-58
2020/12/14 03:23:59;;;;;;;64.07;22.50;;;3.80;99.90;;;;;;5094657;28;20250;-58
2020/12/14 03:26:24;;;;;;;68.95;23.88;;;3.80;99.90;;;;;;5094999;28;20300;-58
2020/12/14 03:28:50;;;;;;;64.10;21.92;;;3.80;99.90;;;;;;5094843;28;20187;-58
2020/12/14 03:31:15;;;;;;;59.72;22.13;;;3.80;99.90;;;;;;5094797;28;20290;-58
2020/12/14 03:33:41;;;;;;;62.58;22.15;;;3.80;99.90;;;;;;5095077;28;20164;-58
2020/12/14 03:36:06;;;;;;;61.30;22.45;;;3.80;99.90;;;;;;5094712;28;20168;-58
2020/12/14 03:38:32;;;;;;;64.85;23.00;;;3.80;99.90;;;;;;5094783;28;20171;-58
2020/12/14 03:41:05;;;;;;;64.68;21.77;;;3.80;99.90;;;;;;5094648;28;20171;-58
2020/12/14 03:43:31;;;;;;;60.97;21.52;;;3.80;99.90;;;;;;5095267;28;20197;-58
2020/12/14 03:45:57;;;;;;;69.68;22.73;;;3.80;99.90;;;;;;5094501;28;20207;-58
2020/12/14 03:48:22;;;;;;;61.38;21.90;;;3.80;99.90;;;;;;5094632;28;20636;-58
2020/12/14 03:50:48;;;;;;;56.47;21.88;;;3.90;99.90;;;;;;5094529;28;20167;-58
2020/12/14 03:53:13;;;;;;;57.33;22.63;;;3.90;99.90;;;;;;5094866;28;20167;-58
2020/12/14 03:55:40;;;;;;;60.38;22.10;;;3.90;99.90;;;;;;5094724;28;20603;-58
2020/12/14 03:58:06;;;;;;;52.00;21.45;;;3.90;99.90;;;;;;5094812;28;20172;-58
2020/12/14 04:00:32;;;;;;;63.17;23.58;;;4.00;99.90;;;;;;5094510;28;20175;-58
2020/12/14 04:02:58;;;;;;;57.08;21.02;;;4.00;99.90;;;;;;5094795;28;20175;-58
2020/12/14 04:05:23;;;;;;;56.65;21.23;;;4.00;99.90;;;;;;5094542;28;20191;-58
2020/12/14 04:07:48;;;;;;;53.53;20.70;;;4.00;99.90;;;;;;5094667;28;20163;-58
2020/12/14 04:10:14;;;;;;;55.28;20.52;;;4.00;99.90;;;;;;5094560;28;20172;-58
2020/12/14 04:12:40;;;;;;;55.00;22.08;;;4.00;99.90;;;;;;5094269;28;20187;-58
2020/12/14 04:15:05;;;;;;;56.53;22.02;;;4.00;99.90;;;;;;5094579;28;20611;-58
2020/12/14 04:17:32;;;;;;;52.33;21.00;;;4.10;99.90;;;;;;5094308;28;20167;-58
2020/12/14 04:19:57;;;;;;;55.65;21.58;;;4.10;99.90;;;;;;5094459;28;20545;-58
2020/12/14 04:22:23;;;;;;;52.38;21.33;;;4.10;99.90;;;;;;5094263;28;20224;-58
2020/12/14 04:24:48;;;;;;;55.78;21.13;;;4.10;99.90;;;;;;5094144;28;20159;-58
2020/12/14 04:27:14;;;;;;;56.10;21.35;;;4.10;99.90;;;;;;5094111;28;20191;-58
2020/12/14 04:29:39;;;;;;;63.95;22.15;;;4.20;99.90;;;;;;5094235;28;20175;-58
2020/12/14 04:32:05;;;;;;;53.97;22.00;;;4.20;99.90;;;;;;5094392;28;20160;-58
2020/12/14 04:34:30;;;;;;;53.22;20.98;;;4.20;99.90;;;;;;5097734;28;20167;-58
2020/12/14 04:36:56;;;;;;;53.20;21.45;;;4.20;99.90;;;;;;5097623;28;20603;-58
2020/12/14 04:39:22;;;;;;;59.78;22.23;;;4.20;99.90;;;;;;5097935;28;20176;-58
2020/12/14 04:41:47;;;;;;;57.20;22.08;;;4.20;99.90;;;;;;5097624;28;20168;-58
2020/12/14 04:44:13;;;;;;;52.75;21.70;;;4.20;99.90;;;;;;5097818;28;20187;-58
2020/12/14 04:46:39;;;;;;;57.15;22.35;;;4.20;99.90;;;;;;5097682;28;20535;-58
2020/12/14 04:49:07;;;;;;;59.25;21.65;;;4.30;99.90;;;;;;5098237;28;20166;-58
2020/12/14 04:51:35;;;;;;;53.13;21.75;;;4.30;99.90;;;;;;5098103;28;20166;-58
2020/12/14 04:54:01;;;;;;;55.67;21.55;;;4.30;99.90;;;;;;5097386;28;20171;-58
2020/12/14 04:56:27;;;;;;;57.00;22.70;;;4.30;99.90;;;;;;5098332;28;20172;-58
2020/12/14 04:58:57;;;;;;;63.60;22.50;;;4.30;99.90;;;;;;5097886;28;20203;-58
2020/12/14 05:01:23;;;;;;;51.17;21.80;;;4.30;99.90;;;;;;5098385;28;20588;-58
2020/12/14 05:03:49;;;;;;;57.20;22.65;;;4.30;99.90;;;;;;5097166;28;20563;-58
2020/12/14 05:06:15;;;;;;;51.20;20.70;;;4.30;99.90;;;;;;5096973;28;20238;-58
2020/12/14 05:08:41;;;;;;;60.88;22.05;;;4.30;99.90;;;;;;5097326;28;20164;-58
2020/12/14 05:11:08;;;;;;;58.13;21.50;;;4.30;99.90;;;;;;5097149;28;20171;-58
2020/12/14 05:13:35;;;;;;;54.47;21.80;;;4.30;99.90;;;;;;5097226;28;20228;-58
2020/12/14 05:16:01;;;;;;;55.60;22.15;;;4.40;99.90;;;;;;5097135;28;20164;-58
2020/12/14 05:18:27;;;;;;;53.72;20.73;;;4.40;99.90;;;;;;5096964;28;20176;-58
2020/12/14 05:20:57;;;;;;;52.30;22.08;;;4.40;99.90;;;;;;5096901;28;20477;-59
2020/12/14 05:23:23;;;;;;;56.00;21.92;;;4.40;99.90;;;;;;5097006;28;20155;-59
2020/12/14 05:25:49;;;;;;;54.65;22.52;;;4.40;99.90;;;;;;5097492;28;20202;-59
2020/12/14 05:28:19;;;;;;;51.25;20.85;;;4.40;99.90;;;;;;5096028;28;20160;-58
2020/12/14 05:30:49;;;;;;;52.13;20.48;;;4.40;99.90;;;;;;5096930;28;20171;-57
2020/12/14 05:33:22;;;;;;;55.03;21.35;;;4.40;99.90;;;;;;5096961;28;20186;-57
2020/12/14 05:35:48;;;;;;;52.75;20.75;;;4.40;99.90;;;;;;5096512;28;20168;-57
2020/12/14 05:38:21;;;;;;;49.63;20.00;;;4.40;99.90;;;;;;5096611;28;20231;-57
2020/12/14 05:40:51;;;;;;;52.97;20.52;;;4.40;99.90;;;;;;5096600;28;20520;-57
2020/12/14 05:43:19;;;;;;;54.28;20.70;;;4.40;99.90;;;;;;5096902;28;20252;-57
2020/12/14 05:45:46;;;;;;;50.97;20.42;;;4.40;99.90;;;;;;5095635;28;20191;-57
2020/12/14 05:48:22;;;;;;;48.15;20.10;;;4.40;99.90;;;;;;5096618;28;20207;-57
2020/12/14 05:50:50;;;;;;;49.70;19.92;;;4.40;99.90;;;;;;5095586;28;20627;-57
2020/12/14 05:53:19;;;;;;;49.00;20.55;;;4.40;99.90;;;;;;5096274;28;20172;-58
2020/12/14 05:55:45;;;;;;;48.53;20.02;;;4.40;99.90;;;;;;5096421;28;20254;-58
2020/12/14 05:58:16;;;;;;;52.22;21.27;;;4.40;99.90;;;;;;5096472;28;20266;-58
2020/12/14 06:00:46;;;;;;;55.67;20.60;;;4.40;99.90;;;;;;5096455;28;20190;-58
2020/12/14 06:03:12;;;;;;;47.22;20.15;;;4.50;99.90;;;;;;5096114;28;20493;-57
2020/12/14 06:05:38;;;;;;;50.45;20.42;;;4.50;99.90;;;;;;5096287;28;20591;-57
2020/12/14 06:08:16;;;;;;;48.83;20.50;;;4.50;99.90;;;;;;5095942;28;20195;-58
2020/12/14 06:10:44;;;;;;;49.42;20.73;;;4.50;99.90;;;;;;5095471;28;20536;-58
2020/12/14 06:13:12;;;;;;;47.45;20.33;;;4.50;99.90;;;;;;5094899;28;20169;-58
2020/12/14 06:15:39;;;;;;;43.70;18.80;;;4.50;99.90;;;;;;5094931;28;20171;-58
2020/12/14 06:18:05;;;;;;;43.25;19.20;;;4.50;99.90;;;;;;5096168;28;20186;-58
2020/12/14 06:20:31;;;;;;;47.13;19.45;;;4.50;99.90;;;;;;5096355;28;20168;-58
2020/12/14 06:23:05;;;;;;;39.75;18.58;;;4.50;99.90;;;;;;5095046;28;20209;-58
2020/12/14 06:25:31;;;;;;;43.53;18.85;;;4.50;99.90;;;;;;5095009;28;20222;-58
2020/12/14 06:28:14;;;;;;;43.08;18.70;;;4.50;99.90;;;;;;5094904;28;20195;-58
2020/12/14 06:30:40;;;;;;;45.63;18.77;;;4.50;99.90;;;;;;5094935;28;20191;-58
2020/12/14 06:33:11;;;;;;;48.55;18.55;;;4.50;99.90;;;;;;5095711;28;20607;-58
2020/12/14 06:35:49;;;;;;;49.03;17.50;;;4.50;99.90;;;;;;5095479;28;20609;-57
2020/12/14 06:38:51;;;;;;;45.03;18.33;;;4.50;99.90;;;;;;5095719;28;20468;-57
2020/12/14 06:41:21;;;;;;;41.58;18.88;;;4.50;99.90;;;;;;5033432;28;20180;-58
2020/12/14 06:43:49;;;;;;;42.78;17.95;;;4.50;99.90;;;;;;5033061;28;20724;-58
2020/12/14 06:46:26;;;;;;;36.63;17.13;;;4.50;99.90;;;;;;5033224;28;20658;-58
2020/12/14 06:48:52;;;;;;;41.45;18.00;;;4.50;99.90;;;;;;5013574;28;20192;-58
2020/12/14 06:51:18;;;;;;;42.55;18.52;;;4.50;99.90;;;;;;5013465;28;20182;-58
2020/12/14 06:53:52;;;;;;;41.85;17.75;;;4.50;99.90;;;;;;5013383;28;20568;-58
2020/12/14 06:56:26;;;;;;;36.08;16.95;;;4.50;99.90;;;;;;5012624;28;20412;-58
2020/12/14 06:58:52;;;;;;;40.45;17.67;;;4.60;99.90;;;;;;5013613;28;20268;-58
2020/12/14 07:01:37;;;;;;;39.22;17.80;;;4.50;99.90;;;;;;5013411;28;20257;-58
2020/12/14 07:04:29;;;;;;;34.83;16.00;;;4.50;99.90;;;;;;5013463;28;20166;-58
2020/12/14 07:07:14;;;;;;;39.50;17.10;;;4.50;99.90;;;;;;5010400;28;20546;-57
2020/12/14 07:09:41;;;;;;;36.97;16.77;;;4.50;99.90;;;;;;5013458;28;20331;-58
2020/12/14 07:12:09;;;;;;;33.35;15.52;;;4.50;99.90;;;;;;5013185;28;20170;-58
2020/12/14 07:14:48;;;;;;;37.95;17.23;;;4.60;99.90;;;;;;5027336;28;20183;-58
2020/12/14 07:17:26;;;;;;;36.75;17.45;;;4.60;99.90;;;;;;5072595;28;20152;-57
2020/12/14 07:20:02;;;;;;;33.85;16.55;;;4.60;99.90;;;;;;5072641;28;20170;-58
2020/12/14 07:22:34;;;;;;;34.78;15.75;;;4.60;99.90;;;;;;5072982;28;20156;-58
2020/12/14 07:25:02;;;;;;;30.77;15.10;;;4.60;99.90;;;;;;5072895;28;20160;-57
2020/12/14 07:27:28;;;;;;;36.05;16.20;;;4.60;99.90;;;;;;5072760;28;20542;-58
2020/12/14 07:30:07;;;;;;;36.10;15.55;;;4.60;99.90;;;;;;5073341;28;20168;-57
2020/12/14 07:32:33;;;;;;;29.27;14.13;;;4.60;99.90;;;;;;5074572;28;20182;-57
2020/12/14 07:34:58;;;;;;;33.65;15.25;;;4.60;99.90;;;;;;5074888;28;20644;-57
2020/12/14 07:37:24;;;;;;;30.30;14.63;;;4.60;99.90;;;;;;5074743;28;20175;-58
2020/12/14 07:39:50;;;;;;;29.80;15.30;;;4.60;99.90;;;;;;5075081;28;20481;-57
2020/12/14 07:42:30;;;;;;;32.30;15.20;;;4.60;99.90;;;;;;5074684;28;20161;-58
2020/12/14 07:45:34;;;;;;;26.30;12.93;;;4.60;99.90;;;;;;5074447;28;20163;-58
2020/12/14 07:47:59;;;;;;;28.48;14.10;;;4.60;99.90;;;;;;5070128;28;20194;-57
2020/12/14 07:50:26;;;;;;;26.55;13.07;;;4.60;99.90;;;;;;5074027;28;20176;-57
2020/12/14 07:52:53;;;;;;;28.90;13.88;;;4.60;99.90;;;;;;5074180;28;20169;-58
2020/12/14 07:55:19;;;;;;;27.40;13.27;;;4.60;99.90;;;;;;5074624;28;20168;-58
2020/12/14 07:57:46;;;;;;;24.52;13.07;;;4.60;99.90;;;;;;5074266;28;20168;-58
2020/12/14 08:00:16;;;;;;;27.25;13.68;;;4.60;99.90;;;;;;5074059;28;20172;-58
2020/12/14 08:02:43;;;;;;;22.60;12.00;;;4.60;99.90;;;;;;5072451;28;20206;-57
2020/12/14 08:05:11;;;;;;;23.30;12.27;;;4.60;99.90;;;;;;5072450;28;20249;-58
2020/12/14 08:07:47;;;;;;;26.27;12.88;;;4.60;99.90;;;;;;5073293;28;20233;-58
2020/12/14 08:10:13;;;;;;;24.15;12.93;;;4.60;99.90;;;;;;5076346;28;20148;-58
2020/12/14 08:12:43;;;;;;;24.70;12.57;;;4.60;99.90;;;;;;5075864;28;20592;-57
2020/12/14 08:15:17;;;;;;;21.25;12.50;;;4.60;99.90;;;;;;5077806;28;20180;-58
2020/12/14 08:17:44;;;;;;;25.08;12.50;;;4.60;99.90;;;;;;5078599;28;20172;-58
2020/12/14 08:20:36;;;;;;;20.98;11.88;;;4.70;99.90;;;;;;5093766;28;20525;-58
2020/12/14 08:23:14;;;;;;;24.90;12.15;;;4.70;99.90;;;;;;5076716;28;20153;-58
2020/12/14 08:25:44;;;;;;;21.65;12.38;;;4.70;99.90;;;;;;5077515;28;20241;-59
2020/12/14 08:28:10;;;;;;;23.92;12.80;;;4.80;99.90;;;;;;5077482;28;20221;-59
2020/12/14 08:30:39;;;;;;;22.08;12.07;;;4.80;99.90;;;;;;5077328;28;20164;-59
2020/12/14 08:33:15;;;;;;;23.10;12.57;;;4.90;99.90;;;;;;5076890;28;20174;-58
2020/12/14 08:36:04;;;;;;;21.27;11.75;;;4.90;99.90;;;;;;5077450;28;20523;-58
2020/12/14 08:38:30;;;;;;;19.88;11.88;;;4.90;99.90;;;;;;5076894;28;20247;-58
2020/12/14 08:40:57;;;;;;;22.02;11.75;;;4.90;99.90;;;;;;5077216;28;20165;-59
2020/12/14 08:43:25;;;;;;;27.05;11.80;;;4.90;99.90;;;;;;5077020;28;20176;-58
2020/12/14 08:46:09;;;;;;;22.73;12.05;;;5.00;99.90;;;;;;5076744;28;20600;-59
2020/12/14 08:48:50;;;;;;;22.20;12.10;;;5.00;99.90;;;;;;5077425;28;20164;-59
2020/12/14 08:51:18;;;;;;;21.08;11.63;;;5.00;99.90;;;;;;5076670;28;20155;-59
2020/12/14 08:53:45;;;;;;;20.98;11.20;;;5.00;99.90;;;;;;5074267;28;20589;-58
2020/12/14 08:56:13;;;;;;;20.73;11.98;;;5.00;99.90;;;;;;5075676;28;20180;-59
2020/12/14 08:58:52;;;;;;;19.15;10.57;;;5.10;99.90;;;;;;5076450;28;20176;-58
2020/12/14 09:01:22;;;;;;;20.55;11.32;;;5.10;99.90;;;;;;5076127;28;20172;-58
2020/12/14 09:03:55;;;;;;;19.95;10.80;;;5.10;99.90;;;;;;5076526;28;20168;-58
2020/12/14 09:06:25;;;;;;;19.60;10.52;;;5.10;99.90;;;;;;5078317;28;20226;-58
2020/12/14 09:08:57;;;;;;;20.67;12.20;;;5.10;99.90;;;;;;5078582;28;20612;-58
2020/12/14 09:11:22;;;;;;;21.65;11.48;;;5.10;99.90;;;;;;5088799;28;20172;-58
2020/12/14 09:13:49;;;;;;;18.20;10.57;;;5.20;99.90;;;;;;5087237;28;20260;-59
2020/12/14 09:16:17;;;;;;;18.60;11.75;;;5.20;99.90;;;;;;5076727;28;20185;-59
2020/12/14 09:18:44;;;;;;;20.92;11.52;;;5.20;99.90;;;;;;5073911;28;20587;-58
2020/12/14 09:21:09;;;;;;;19.63;10.98;;;5.20;99.90;;;;;;5074878;28;20186;-59
2020/12/14 09:23:35;;;;;;;16.95;10.63;;;5.20;99.90;;;;;;5073506;28;20169;-59
2020/12/14 09:26:00;;;;;;;19.88;11.82;;;5.20;99.90;;;;;;5075382;28;20203;-59
2020/12/14 09:28:26;;;;;;;18.98;11.35;;;5.20;99.90;;;;;;5076897;28;20191;-59
2020/12/14 09:30:51;;;;;;;19.23;10.88;;;5.20;99.90;;;;;;5076862;28;20168;-58
2020/12/14 09:33:17;;;;;;;20.48;10.98;;;5.20;99.90;;;;;;5076398;28;20176;-59
2020/12/14 09:35:42;;;;;;;19.38;11.18;;;5.30;99.90;;;;;;5076717;28;20589;-59
2020/12/14 09:38:08;;;;;;;18.73;10.70;;;5.30;99.90;;;;;;5076387;28;20179;-58
2020/12/14 09:40:33;;;;;;;18.50;10.95;;;5.40;99.90;;;;;;5076169;28;20168;-58
2020/12/14 09:42:59;;;;;;;19.02;10.90;;;5.40;99.90;;;;;;5076625;28;20164;-59
2020/12/14 09:45:25;;;;;;;17.35;10.77;;;5.50;99.90;;;;;;5075994;28;20212;-59
2020/12/14 09:47:50;;;;;;;17.27;10.63;;;5.60;99.90;;;;;;5076770;28;20495;-58
2020/12/14 09:50:16;;;;;;;17.40;11.10;;;5.60;99.90;;;;;;5076093;28;20251;-58
2020/12/14 09:52:41;;;;;;;18.10;10.80;;;5.70;99.90;;;;;;5076376;28;20160;-58
2020/12/14 09:55:07;;;;;;;16.50;10.27;;;5.70;99.90;;;;;;5075957;28;20501;-59
2020/12/14 09:57:32;;;;;;;19.75;10.57;;;5.80;99.90;;;;;;5076161;28;20169;-58
2020/12/14 09:59:57;;;;;;;19.77;10.93;;;5.90;99.90;;;;;;5075875;28;20195;-58
2020/12/14 10:02:23;;;;;;;18.10;11.18;;;5.90;99.90;;;;;;5075911;28;20168;-59
2020/12/14 10:04:48;;;;;;;17.17;10.52;;;6.00;99.90;;;;;;5075712;28;20160;-59
2020/12/14 10:07:14;;;;;;;17.85;10.60;;;6.10;99.90;;;;;;5075577;28;20196;-58
2020/12/14 10:09:39;;;;;;;17.42;10.05;;;6.10;99.90;;;;;;5075676;28;20175;-58
2020/12/14 10:12:06;;;;;;;14.93;10.32;;;6.10;99.90;;;;;;5075678;28;20196;-58
2020/12/14 10:14:31;;;;;;;17.55;10.75;;;6.10;99.90;;;;;;5075568;28;20243;-59
2020/12/14 10:16:57;;;;;;;16.08;9.80;;;6.10;99.90;;;;;;5075587;28;20211;-59
2020/12/14 10:19:23;;;;;;;16.35;10.18;;;6.20;99.90;;;;;;5075505;28;20274;-59
2020/12/14 10:21:48;;;;;;;17.20;10.40;;;6.20;99.90;;;;;;5075578;28;20237;-58
2020/12/14 10:24:14;;;;;;;16.13;9.82;;;6.20;99.90;;;;;;5075537;28;20176;-59
2020/12/14 10:26:39;;;;;;;16.15;10.43;;;6.20;99.90;;;;;;5079572;28;20489;-58
2020/12/14 10:29:05;;;;;;;16.55;10.32;;;6.30;99.90;;;;;;5094646;28;20259;-58
2020/12/14 10:31:30;;;;;;;16.50;10.75;;;6.30;99.90;;;;;;5093984;28;20328;-59
2020/12/14 10:33:58;;;;;;;18.27;11.13;;;6.30;99.90;;;;;;5095370;28;20197;-59
2020/12/14 10:36:24;;;;;;;16.35;10.02;;;6.40;99.90;;;;;;5095324;28;20509;-59
2020/12/14 10:38:49;;;;;;;19.35;11.13;;;6.30;99.90;;;;;;5093932;28;20164;-59
2020/12/14 10:41:16;;;;;;;17.67;10.57;;;6.40;99.90;;;;;;5092680;28;20185;-59
2020/12/14 10:43:41;;;;;;;18.23;11.20;;;6.40;99.90;;;;;;5092841;28;20168;-59
2020/12/14 10:46:07;;;;;;;16.38;10.57;;;6.40;99.90;;;;;;5093090;28;20203;-58
2020/12/14 10:48:32;;;;;;;15.77;10.23;;;6.30;99.90;;;;;;5093805;28;20191;-58
2020/12/14 10:50:58;;;;;;;15.98;10.40;;;6.30;99.90;;;;;;5093568;28;20505;-58
2020/12/14 10:53:23;;;;;;;17.17;10.40;;;6.40;99.90;;;;;;5092413;28;20567;-58
2020/12/14 10:55:49;;;;;;;16.48;10.85;;;6.40;99.90;;;;;;5092967;28;20675;-58
2020/12/14 10:58:14;;;;;;;17.88;10.60;;;6.40;99.90;;;;;;5092636;28;20174;-58
2020/12/14 11:00:40;;;;;;;17.23;10.60;;;6.40;99.90;;;;;;5092810;28;20163;-58
2020/12/14 11:03:05;;;;;;;16.95;10.48;;;6.40;99.90;;;;;;5092882;28;20604;-58
2020/12/14 11:05:31;;;;;;;18.70;11.50;;;6.40;99.90;;;;;;5091710;28;20178;-58
2020/12/14 11:07:57;;;;;;;16.63;10.52;;;6.40;99.90;;;;;;5090578;28;20163;-58
2020/12/14 11:10:22;;;;;;;16.50;10.45;;;6.50;99.90;;;;;;5091462;28;20171;-58
2020/12/14 11:12:48;;;;;;;15.18;10.27;;;6.50;99.90;;;;;;5091767;28;20183;-59
2020/12/14 11:15:14;;;;;;;16.67;10.95;;;6.60;99.90;;;;;;5091729;28;20248;-58
2020/12/14 11:17:39;;;;;;;16.08;10.73;;;6.50;99.90;;;;;;5091649;28;20155;-58
2020/12/14 11:20:08;;;;;;;15.98;10.18;;;6.60;99.90;;;;;;5091561;28;20160;-58
2020/12/14 11:22:35;;;;;;;15.85;10.55;;;6.60;99.90;;;;;;5093390;28;20515;-58
2020/12/14 11:25:00;;;;;;;17.33;10.57;;;6.70;99.90;;;;;;5094836;28;20163;-59
2020/12/14 11:27:26;;;;;;;17.33;10.65;;;6.80;99.90;;;;;;5095007;28;20218;-58
2020/12/14 11:29:52;;;;;;;15.23;10.35;;;6.80;99.90;;;;;;5095035;28;20220;-58
2020/12/14 11:32:17;;;;;;;15.30;9.82;;;6.90;99.90;;;;;;5094849;28;20163;-59
2020/12/14 11:34:42;;;;;;;15.85;10.18;;;6.90;99.90;;;;;;5094648;28;20232;-59
2020/12/14 11:37:08;;;;;;;16.05;10.10;;;6.90;99.90;;;;;;5095297;28;20478;-59
2020/12/14 11:39:33;;;;;;;14.48;10.27;;;7.00;99.90;;;;;;5094876;28;20176;-58
2020/12/14 11:41:59;;;;;;;14.23;9.43;;;7.00;99.90;;;;;;5094757;28;20194;-59
2020/12/14 11:44:25;;;;;;;15.95;10.05;;;7.10;99.90;;;;;;5098919;28;20163;-58
2020/12/14 11:46:51;;;;;;;14.82;9.75;;;7.10;99.90;;;;;;5098547;28;20199;-59
2020/12/14 11:49:18;;;;;;;13.63;9.40;;;7.10;99.90;;;;;;5098975;28;20159;-59
2020/12/14 11:51:43;;;;;;;14.57;9.60;;;7.20;99.90;;;;;;5099028;28;20189;-59
2020/12/14 11:54:09;;;;;;;13.95;9.43;;;7.20;99.90;;;;;;5098965;28;20603;-59
2020/12/14 11:56:34;;;;;;;14.48;9.27;;;7.30;99.90;;;;;;5098507;28;20694;-59
2020/12/14 11:59:00;;;;;;;13.40;9.30;;;7.40;99.90;;;;;;5098540;28;20195;-59
2020/12/14 12:01:25;;;;;;;15.73;9.50;;;7.40;99.90;;;;;;5098435;28;20198;-59
2020/12/14 12:03:52;;;;;;;13.30;9.43;;;7.50;99.90;;;;;;5098490;28;20168;-59
2020/12/14 12:06:18;;;;;;;14.52;9.38;;;7.60;99.90;;;;;;5098268;28;20187;-58
2020/12/14 12:08:44;;;;;;;14.50;9.25;;;7.60;99.90;;;;;;5097304;28;20164;-58
2020/12/14 12:11:12;;;;;;;12.68;8.77;;;7.60;99.90;;;;;;5097923;28;20164;-59
2020/12/14 12:13:37;;;;;;;11.93;8.23;;;7.60;99.90;;;;;;5096480;28;20801;-59
2020/12/14 12:16:05;;;;;;;12.52;8.48;;;7.70;99.90;;;;;;5096410;28;20168;-59
2020/12/14 12:18:30;;;;;;;12.07;8.48;;;7.70;99.90;;;;;;5096336;28;20182;-59
2020/12/14 12:20:56;;;;;;;11.18;7.53;;;7.70;99.90;;;;;;5095802;28;20171;-59
2020/12/14 12:23:21;;;;;;;10.40;7.82;;;7.70;99.90;;;;;;5095915;28;20167;-58
2020/12/14 12:25:47;;;;;;;10.25;7.97;;;7.70;99.90;;;;;;5095614;28;20264;-58
2020/12/14 12:28:13;;;;;;;11.38;8.13;;;7.70;99.90;;;;;;5097099;28;20240;-58
2020/12/14 12:30:39;;;;;;;10.90;7.65;;;7.70;99.90;;;;;;5097605;28;20527;-58
2020/12/14 12:33:04;;;;;;;11.75;7.88;;;7.70;99.90;;;;;;5097799;28;20170;-58
2020/12/14 12:35:30;;;;;;;10.38;7.43;;;7.70;99.90;;;;;;5097598;28;20164;-58
2020/12/14 12:37:56;;;;;;;10.43;7.57;;;7.80;99.90;;;;;;5097672;28;20172;-58
2020/12/14 12:40:21;;;;;;;9.32;7.22;;;7.80;99.90;;;;;;5097631;28;20220;-58